sensor_id;sensor_type;location;lat;lon;timestamp;P1;P2;P0
62846;PMS5003;49477;35.676;139.586;2023-06-24T00:01:56;11;11;
62846;PMS5003;49477;35.676;139.586;2023-06-24T00:04:26;13;13;
62846;PMS5003;49477;35.676;139.586;2023-06-24T00:06:55;11;11;
62846;PMS5003;49477;35.676;139.586;2023-06-24T00:09:25;14;12;
62846;PMS5003;49477;35.676;139.586;2023-06-24T00:11:55;12;11;
62846;PMS5003;49477;35.676;139.586;2023-06-24T00:14:25;12;10;
62846;PMS5003;49477;35.676;139.586;2023-06-24T00:16:55;12;12;
62846;PMS5003;49477;35.676;139.586;2023-06-24T00:19:24;13;12;
62846;PMS5003;49477;35.676;139.586;2023-06-24T00:21:59;11;11;
62846;PMS5003;49477;35.676;139.586;2023-06-24T00:24:28;11;11;
62846;PMS5003;49477;35.676;139.586;2023-06-24T00:26:57;11;11;
62846;PMS5003;49477;35.676;139.586;2023-06-24T00:29:27;10;10;
62846;PMS5003;49477;35.676;139.586;2023-06-24T00:31:56;12;11;
62846;PMS5003;49477;35.676;139.586;2023-06-24T00:34:26;11;11;
62846;PMS5003;49477;35.676;139.586;2023-06-24T00:36:55;11;11;
62846;PMS5003;49477;35.676;139.586;2023-06-24T00:39:25;11;11;
62846;PMS5003;49477;35.676;139.586;2023-06-24T00:41:54;13;11;
62846;PMS5003;49477;35.676;139.586;2023-06-24T00:44:24;14;11;
62846;PMS5003;49477;35.676;139.586;2023-06-24T00:46:54;10;10;
62846;PMS5003;49477;35.676;139.586;2023-06-24T00:49:23;13;12;
62846;PMS5003;49477;35.676;139.586;2023-06-24T00:51:53;12;10;
62846;PMS5003;49477;35.676;139.586;2023-06-24T00:54:22;11;11;
62846;PMS5003;49477;35.676;139.586;2023-06-24T00:56:52;13;12;
62846;PMS5003;49477;35.676;139.586;2023-06-24T00:59:21;10;10;
62846;PMS5003;49477;35.676;139.586;2023-06-24T01:01:51;13;13;
62846;PMS5003;49477;35.676;139.586;2023-06-24T01:04:20;12;12;
62846;PMS5003;49477;35.676;139.586;2023-06-24T01:06:50;12;12;
62846;PMS5003;49477;35.676;139.586;2023-06-24T01:09:19;14;12;
62846;PMS5003;49477;35.676;139.586;2023-06-24T01:11:49;13;13;
62846;PMS5003;49477;35.676;139.586;2023-06-24T01:14:19;12;10;
62846;PMS5003;49477;35.676;139.586;2023-06-24T01:16:49;17;12;
62846;PMS5003;49477;35.676;139.586;2023-06-24T01:19:33;10;10;
62846;PMS5003;49477;35.676;139.586;2023-06-24T01:22:24;10;10;
62846;PMS5003;49477;35.676;139.586;2023-06-24T01:25:18;12;12;
62846;PMS5003;49477;35.676;139.586;2023-06-24T01:28:07;11;10;
62846;PMS5003;49477;35.676;139.586;2023-06-24T01:34:18;11;11;
62846;PMS5003;49477;35.676;139.586;2023-06-24T01:36:55;12;12;
62846;PMS5003;49477;35.676;139.586;2023-06-24T01:39:33;13;13;
62846;PMS5003;49477;35.676;139.586;2023-06-24T01:42:06;16;15;
62846;PMS5003;49477;35.676;139.586;2023-06-24T01:44:39;22;17;
62846;PMS5003;49477;35.676;139.586;2023-06-24T01:47:10;11;11;
62846;PMS5003;49477;35.676;139.586;2023-06-24T01:49:43;15;15;
62846;PMS5003;49477;35.676;139.586;2023-06-24T01:52:13;14;14;
62846;PMS5003;49477;35.676;139.586;2023-06-24T01:54:43;17;16;
62846;PMS5003;49477;35.676;139.586;2023-06-24T01:57:15;13;12;
62846;PMS5003;49477;35.676;139.586;2023-06-24T01:59:48;14;14;
62846;PMS5003;49477;35.676;139.586;2023-06-24T02:02:18;17;16;
62846;PMS5003;49477;35.676;139.586;2023-06-24T02:04:48;15;15;
62846;PMS5003;49477;35.676;139.586;2023-06-24T02:07:19;13;13;
62846;PMS5003;49477;35.676;139.586;2023-06-24T02:09:51;15;15;
62846;PMS5003;49477;35.676;139.586;2023-06-24T02:12:21;16;16;
62846;PMS5003;49477;35.676;139.586;2023-06-24T02:14:53;18;17;
62846;PMS5003;49477;35.676;139.586;2023-06-24T02:17:24;17;17;
62846;PMS5003;49477;35.676;139.586;2023-06-24T02:19:54;14;13;
62846;PMS5003;49477;35.676;139.586;2023-06-24T02:22:24;17;17;
62846;PMS5003;49477;35.676;139.586;2023-06-24T02:24:54;20;16;
62846;PMS5003;49477;35.676;139.586;2023-06-24T02:27:23;16;15;
62846;PMS5003;49477;35.676;139.586;2023-06-24T02:29:54;15;15;
62846;PMS5003;49477;35.676;139.586;2023-06-24T02:32:24;18;16;
62846;PMS5003;49477;35.676;139.586;2023-06-24T02:34:54;17;17;
62846;PMS5003;49477;35.676;139.586;2023-06-24T02:37:24;17;17;
62846;PMS5003;49477;35.676;139.586;2023-06-24T02:39:54;18;16;
62846;PMS5003;49477;35.676;139.586;2023-06-24T02:42:24;16;16;
62846;PMS5003;49477;35.676;139.586;2023-06-24T02:44:53;16;16;
62846;PMS5003;49477;35.676;139.586;2023-06-24T02:47:22;17;16;
62846;PMS5003;49477;35.676;139.586;2023-06-24T02:49:53;16;16;
62846;PMS5003;49477;35.676;139.586;2023-06-24T02:52:23;15;15;
62846;PMS5003;49477;35.676;139.586;2023-06-24T02:54:52;18;16;
62846;PMS5003;49477;35.676;139.586;2023-06-24T02:57:22;16;16;
62846;PMS5003;49477;35.676;139.586;2023-06-24T02:59:52;16;14;
62846;PMS5003;49477;35.676;139.586;2023-06-24T03:02:21;17;15;
62846;PMS5003;49477;35.676;139.586;2023-06-24T03:04:51;24;20;
62846;PMS5003;49477;35.676;139.586;2023-06-24T03:07:21;17;16;
62846;PMS5003;49477;35.676;139.586;2023-06-24T03:09:51;16;16;
62846;PMS5003;49477;35.676;139.586;2023-06-24T03:12:20;20;17;
62846;PMS5003;49477;35.676;139.586;2023-06-24T03:14:49;18;17;
62846;PMS5003;49477;35.676;139.586;2023-06-24T03:17:18;18;15;
62846;PMS5003;49477;35.676;139.586;2023-06-24T03:19:48;19;15;
62846;PMS5003;49477;35.676;139.586;2023-06-24T03:22:17;19;19;
62846;PMS5003;49477;35.676;139.586;2023-06-24T03:24:46;15;15;
62846;PMS5003;49477;35.676;139.586;2023-06-24T03:27:15;19;18;
62846;PMS5003;49477;35.676;139.586;2023-06-24T03:29:44;15;14;
62846;PMS5003;49477;35.676;139.586;2023-06-24T03:32:13;17;16;
62846;PMS5003;49477;35.676;139.586;2023-06-24T03:34:43;18;15;
62846;PMS5003;49477;35.676;139.586;2023-06-24T03:37:13;17;16;
62846;PMS5003;49477;35.676;139.586;2023-06-24T03:39:42;18;18;
62846;PMS5003;49477;35.676;139.586;2023-06-24T03:42:12;19;16;
62846;PMS5003;49477;35.676;139.586;2023-06-24T03:44:41;15;15;
62846;PMS5003;49477;35.676;139.586;2023-06-24T03:47:10;17;14;
62846;PMS5003;49477;35.676;139.586;2023-06-24T03:49:40;13;13;
62846;PMS5003;49477;35.676;139.586;2023-06-24T03:52:09;15;15;
62846;PMS5003;49477;35.676;139.586;2023-06-24T03:54:38;20;16;
62846;PMS5003;49477;35.676;139.586;2023-06-24T03:57:07;17;15;
62846;PMS5003;49477;35.676;139.586;2023-06-24T03:59:37;17;17;
62846;PMS5003;49477;35.676;139.586;2023-06-24T04:02:06;18;16;
62846;PMS5003;49477;35.676;139.586;2023-06-24T04:04:35;15;15;
62846;PMS5003;49477;35.676;139.586;2023-06-24T04:07:05;15;15;
62846;PMS5003;49477;35.676;139.586;2023-06-24T04:09:34;17;15;
62846;PMS5003;49477;35.676;139.586;2023-06-24T04:12:03;18;18;
62846;PMS5003;49477;35.676;139.586;2023-06-24T04:14:33;21;19;
62846;PMS5003;49477;35.676;139.586;2023-06-24T04:17:02;15;15;
62846;PMS5003;49477;35.676;139.586;2023-06-24T04:19:31;18;14;
62846;PMS5003;49477;35.676;139.586;2023-06-24T04:22:01;18;18;
62846;PMS5003;49477;35.676;139.586;2023-06-24T04:24:31;17;17;
62846;PMS5003;49477;35.676;139.586;2023-06-24T04:27:01;18;16;
62846;PMS5003;49477;35.676;139.586;2023-06-24T04:29:31;20;18;
62846;PMS5003;49477;35.676;139.586;2023-06-24T04:32:00;16;16;
62846;PMS5003;49477;35.676;139.586;2023-06-24T04:34:30;20;17;
62846;PMS5003;49477;35.676;139.586;2023-06-24T04:36:59;17;16;
62846;PMS5003;49477;35.676;139.586;2023-06-24T04:39:29;18;16;
62846;PMS5003;49477;35.676;139.586;2023-06-24T04:41:59;19;17;
62846;PMS5003;49477;35.676;139.586;2023-06-24T04:44:28;20;20;
62846;PMS5003;49477;35.676;139.586;2023-06-24T04:46:58;17;15;
62846;PMS5003;49477;35.676;139.586;2023-06-24T04:49:27;20;20;
62846;PMS5003;49477;35.676;139.586;2023-06-24T04:51:56;16;16;
62846;PMS5003;49477;35.676;139.586;2023-06-24T04:54:27;18;18;
62846;PMS5003;49477;35.676;139.586;2023-06-24T04:56:56;20;18;
62846;PMS5003;49477;35.676;139.586;2023-06-24T04:59:26;20;16;
62846;PMS5003;49477;35.676;139.586;2023-06-24T05:01:55;18;18;
62846;PMS5003;49477;35.676;139.586;2023-06-24T05:04:25;18;17;
62846;PMS5003;49477;35.676;139.586;2023-06-24T05:06:54;16;16;
62846;PMS5003;49477;35.676;139.586;2023-06-24T05:09:23;15;15;
62846;PMS5003;49477;35.676;139.586;2023-06-24T05:11:53;16;15;
62846;PMS5003;49477;35.676;139.586;2023-06-24T05:14:22;18;16;
62846;PMS5003;49477;35.676;139.586;2023-06-24T05:16:51;19;17;
62846;PMS5003;49477;35.676;139.586;2023-06-24T05:19:20;15;15;
62846;PMS5003;49477;35.676;139.586;2023-06-24T05:21:49;24;19;
62846;PMS5003;49477;35.676;139.586;2023-06-24T05:24:18;19;17;
62846;PMS5003;49477;35.676;139.586;2023-06-24T05:26:48;17;16;
62846;PMS5003;49477;35.676;139.586;2023-06-24T05:29:17;21;17;
62846;PMS5003;49477;35.676;139.586;2023-06-24T05:31:47;20;20;
62846;PMS5003;49477;35.676;139.586;2023-06-24T05:34:16;21;20;
62846;PMS5003;49477;35.676;139.586;2023-06-24T05:36:45;25;19;
62846;PMS5003;49477;35.676;139.586;2023-06-24T05:39:14;20;19;
62846;PMS5003;49477;35.676;139.586;2023-06-24T05:41:44;22;22;
62846;PMS5003;49477;35.676;139.586;2023-06-24T05:44:13;26;23;
62846;PMS5003;49477;35.676;139.586;2023-06-24T05:46:42;20;19;
62846;PMS5003;49477;35.676;139.586;2023-06-24T05:49:11;22;19;
62846;PMS5003;49477;35.676;139.586;2023-06-24T05:51:41;23;23;
62846;PMS5003;49477;35.676;139.586;2023-06-24T05:54:10;22;20;
62846;PMS5003;49477;35.676;139.586;2023-06-24T05:56:39;21;20;
62846;PMS5003;49477;35.676;139.586;2023-06-24T05:59:09;23;20;
62846;PMS5003;49477;35.676;139.586;2023-06-24T06:01:38;21;20;
62846;PMS5003;49477;35.676;139.586;2023-06-24T06:04:07;16;16;
62846;PMS5003;49477;35.676;139.586;2023-06-24T06:06:37;23;22;
62846;PMS5003;49477;35.676;139.586;2023-06-24T06:09:07;22;20;
62846;PMS5003;49477;35.676;139.586;2023-06-24T06:11:36;20;18;
62846;PMS5003;49477;35.676;139.586;2023-06-24T06:14:06;18;18;
62846;PMS5003;49477;35.676;139.586;2023-06-24T06:16:35;17;16;
62846;PMS5003;49477;35.676;139.586;2023-06-24T06:19:05;21;20;
62846;PMS5003;49477;35.676;139.586;2023-06-24T06:21:35;17;17;
62846;PMS5003;49477;35.676;139.586;2023-06-24T06:24:05;14;14;
62846;PMS5003;49477;35.676;139.586;2023-06-24T06:26:34;17;16;
62846;PMS5003;49477;35.676;139.586;2023-06-24T06:29:08;18;16;
62846;PMS5003;49477;35.676;139.586;2023-06-24T06:31:38;21;19;
62846;PMS5003;49477;35.676;139.586;2023-06-24T06:34:07;20;17;
62846;PMS5003;49477;35.676;139.586;2023-06-24T06:36:36;20;17;
62846;PMS5003;49477;35.676;139.586;2023-06-24T06:39:05;19;19;
62846;PMS5003;49477;35.676;139.586;2023-06-24T06:41:34;21;18;
62846;PMS5003;49477;35.676;139.586;2023-06-24T06:44:04;20;19;
62846;PMS5003;49477;35.676;139.586;2023-06-24T06:46:33;23;20;
62846;PMS5003;49477;35.676;139.586;2023-06-24T06:49:02;22;22;
62846;PMS5003;49477;35.676;139.586;2023-06-24T06:51:31;21;20;
62846;PMS5003;49477;35.676;139.586;2023-06-24T06:54:00;21;20;
62846;PMS5003;49477;35.676;139.586;2023-06-24T06:56:29;21;21;
62846;PMS5003;49477;35.676;139.586;2023-06-24T06:58:59;32;27;
62846;PMS5003;49477;35.676;139.586;2023-06-24T07:01:28;25;25;
62846;PMS5003;49477;35.676;139.586;2023-06-24T07:03:57;31;30;
62846;PMS5003;49477;35.676;139.586;2023-06-24T07:06:25;28;26;
62846;PMS5003;49477;35.676;139.586;2023-06-24T07:08:55;29;26;
62846;PMS5003;49477;35.676;139.586;2023-06-24T07:11:24;26;25;
62846;PMS5003;49477;35.676;139.586;2023-06-24T07:13:54;32;28;
62846;PMS5003;49477;35.676;139.586;2023-06-24T07:16:23;30;30;
62846;PMS5003;49477;35.676;139.586;2023-06-24T07:18:52;33;31;
62846;PMS5003;49477;35.676;139.586;2023-06-24T07:21:21;32;30;
62846;PMS5003;49477;35.676;139.586;2023-06-24T07:23:50;34;30;
62846;PMS5003;49477;35.676;139.586;2023-06-24T07:26:19;33;28;
62846;PMS5003;49477;35.676;139.586;2023-06-24T07:28:48;35;30;
62846;PMS5003;49477;35.676;139.586;2023-06-24T07:31:18;31;28;
62846;PMS5003;49477;35.676;139.586;2023-06-24T07:33:47;33;30;
62846;PMS5003;49477;35.676;139.586;2023-06-24T07:36:17;30;29;
62846;PMS5003;49477;35.676;139.586;2023-06-24T07:38:47;30;30;
62846;PMS5003;49477;35.676;139.586;2023-06-24T07:41:16;27;24;
62846;PMS5003;49477;35.676;139.586;2023-06-24T07:43:45;30;27;
62846;PMS5003;49477;35.676;139.586;2023-06-24T07:46:14;28;27;
62846;PMS5003;49477;35.676;139.586;2023-06-24T07:48:44;28;27;
62846;PMS5003;49477;35.676;139.586;2023-06-24T07:51:13;30;27;
62846;PMS5003;49477;35.676;139.586;2023-06-24T07:53:42;28;26;
62846;PMS5003;49477;35.676;139.586;2023-06-24T07:56:12;26;26;
62846;PMS5003;49477;35.676;139.586;2023-06-24T07:58:41;28;27;
62846;PMS5003;49477;35.676;139.586;2023-06-24T08:01:10;30;28;
62846;PMS5003;49477;35.676;139.586;2023-06-24T08:03:41;28;26;
62846;PMS5003;49477;35.676;139.586;2023-06-24T08:06:10;26;26;
62846;PMS5003;49477;35.676;139.586;2023-06-24T08:08:39;24;23;
62846;PMS5003;49477;35.676;139.586;2023-06-24T08:11:09;27;25;
62846;PMS5003;49477;35.676;139.586;2023-06-24T08:13:38;26;24;
62846;PMS5003;49477;35.676;139.586;2023-06-24T08:16:07;26;26;
62846;PMS5003;49477;35.676;139.586;2023-06-24T08:18:36;24;21;
62846;PMS5003;49477;35.676;139.586;2023-06-24T08:21:05;24;22;
62846;PMS5003;49477;35.676;139.586;2023-06-24T08:23:34;24;22;
62846;PMS5003;49477;35.676;139.586;2023-06-24T08:26:03;23;22;
62846;PMS5003;49477;35.676;139.586;2023-06-24T08:28:32;23;23;
62846;PMS5003;49477;35.676;139.586;2023-06-24T08:31:02;25;24;
62846;PMS5003;49477;35.676;139.586;2023-06-24T08:33:31;25;23;
62846;PMS5003;49477;35.676;139.586;2023-06-24T08:36:00;28;27;
62846;PMS5003;49477;35.676;139.586;2023-06-24T08:38:29;26;26;
62846;PMS5003;49477;35.676;139.586;2023-06-24T08:40:58;27;26;
62846;PMS5003;49477;35.676;139.586;2023-06-24T08:43:28;22;21;
62846;PMS5003;49477;35.676;139.586;2023-06-24T08:45:57;29;27;
62846;PMS5003;49477;35.676;139.586;2023-06-24T08:48:26;30;26;
62846;PMS5003;49477;35.676;139.586;2023-06-24T08:50:57;30;25;
62846;PMS5003;49477;35.676;139.586;2023-06-24T08:53:28;27;24;
62846;PMS5003;49477;35.676;139.586;2023-06-24T08:55:58;26;26;
62846;PMS5003;49477;35.676;139.586;2023-06-24T08:58:27;26;24;
62846;PMS5003;49477;35.676;139.586;2023-06-24T09:00:56;24;24;
62846;PMS5003;49477;35.676;139.586;2023-06-24T09:03:26;28;24;
62846;PMS5003;49477;35.676;139.586;2023-06-24T09:05:56;35;28;
62846;PMS5003;49477;35.676;139.586;2023-06-24T09:08:25;27;27;
62846;PMS5003;49477;35.676;139.586;2023-06-24T09:10:54;26;26;
62846;PMS5003;49477;35.676;139.586;2023-06-24T09:13:27;29;26;
62846;PMS5003;49477;35.676;139.586;2023-06-24T09:16:11;30;28;
62846;PMS5003;49477;35.676;139.586;2023-06-24T09:18:41;28;23;
62846;PMS5003;49477;35.676;139.586;2023-06-24T09:21:21;27;25;
62846;PMS5003;49477;35.676;139.586;2023-06-24T09:23:53;30;27;
62846;PMS5003;49477;35.676;139.586;2023-06-24T09:26:23;28;25;
62846;PMS5003;49477;35.676;139.586;2023-06-24T09:28:54;27;27;
62846;PMS5003;49477;35.676;139.586;2023-06-24T09:31:24;22;22;
62846;PMS5003;49477;35.676;139.586;2023-06-24T09:33:56;28;25;
62846;PMS5003;49477;35.676;139.586;2023-06-24T09:36:25;30;26;
62846;PMS5003;49477;35.676;139.586;2023-06-24T09:38:55;23;22;
62846;PMS5003;49477;35.676;139.586;2023-06-24T09:41:33;23;22;
62846;PMS5003;49477;35.676;139.586;2023-06-24T09:44:08;29;26;
62846;PMS5003;49477;35.676;139.586;2023-06-24T09:46:39;27;23;
62846;PMS5003;49477;35.676;139.586;2023-06-24T09:49:10;26;26;
62846;PMS5003;49477;35.676;139.586;2023-06-24T09:51:42;28;24;
62846;PMS5003;49477;35.676;139.586;2023-06-24T09:54:15;29;28;
62846;PMS5003;49477;35.676;139.586;2023-06-24T09:56:47;27;24;
62846;PMS5003;49477;35.676;139.586;2023-06-24T09:59:18;27;25;
62846;PMS5003;49477;35.676;139.586;2023-06-24T10:01:48;29;27;
62846;PMS5003;49477;35.676;139.586;2023-06-24T10:04:20;26;23;
62846;PMS5003;49477;35.676;139.586;2023-06-24T10:06:50;25;22;
62846;PMS5003;49477;35.676;139.586;2023-06-24T10:09:21;26;23;
62846;PMS5003;49477;35.676;139.586;2023-06-24T10:11:50;24;23;
62846;PMS5003;49477;35.676;139.586;2023-06-24T10:14:20;28;27;
62846;PMS5003;49477;35.676;139.586;2023-06-24T10:16:49;27;24;
62846;PMS5003;49477;35.676;139.586;2023-06-24T10:19:20;24;24;
62846;PMS5003;49477;35.676;139.586;2023-06-24T10:21:50;35;30;
62846;PMS5003;49477;35.676;139.586;2023-06-24T10:24:37;55;50;
62846;PMS5003;49477;35.676;139.586;2023-06-24T10:27:08;28;27;
62846;PMS5003;49477;35.676;139.586;2023-06-24T10:29:45;25;25;
62846;PMS5003;49477;35.676;139.586;2023-06-24T10:32:15;30;28;
62846;PMS5003;49477;35.676;139.586;2023-06-24T10:34:46;26;26;
62846;PMS5003;49477;35.676;139.586;2023-06-24T10:37:22;25;25;
62846;PMS5003;49477;35.676;139.586;2023-06-24T10:39:59;25;24;
62846;PMS5003;49477;35.676;139.586;2023-06-24T10:42:29;27;25;
62846;PMS5003;49477;35.676;139.586;2023-06-24T10:45:00;24;23;
62846;PMS5003;49477;35.676;139.586;2023-06-24T10:47:41;27;26;
62846;PMS5003;49477;35.676;139.586;2023-06-24T10:50:12;25;25;
62846;PMS5003;49477;35.676;139.586;2023-06-24T10:52:43;34;30;
62846;PMS5003;49477;35.676;139.586;2023-06-24T10:55:14;30;30;
62846;PMS5003;49477;35.676;139.586;2023-06-24T10:57:45;28;26;
62846;PMS5003;49477;35.676;139.586;2023-06-24T11:00:14;26;25;
62846;PMS5003;49477;35.676;139.586;2023-06-24T11:02:44;25;25;
62846;PMS5003;49477;35.676;139.586;2023-06-24T11:05:13;28;27;
62846;PMS5003;49477;35.676;139.586;2023-06-24T11:07:43;31;27;
62846;PMS5003;49477;35.676;139.586;2023-06-24T11:10:13;29;27;
62846;PMS5003;49477;35.676;139.586;2023-06-24T11:12:43;27;25;
62846;PMS5003;49477;35.676;139.586;2023-06-24T11:15:13;29;27;
62846;PMS5003;49477;35.676;139.586;2023-06-24T11:17:43;27;23;
62846;PMS5003;49477;35.676;139.586;2023-06-24T11:20:13;26;25;
62846;PMS5003;49477;35.676;139.586;2023-06-24T11:22:44;26;25;
62846;PMS5003;49477;35.676;139.586;2023-06-24T11:25:17;28;25;
62846;PMS5003;49477;35.676;139.586;2023-06-24T11:27:49;27;26;
62846;PMS5003;49477;35.676;139.586;2023-06-24T11:30:18;23;23;
62846;PMS5003;49477;35.676;139.586;2023-06-24T11:32:48;37;37;
62846;PMS5003;49477;35.676;139.586;2023-06-24T11:35:17;30;30;
62846;PMS5003;49477;35.676;139.586;2023-06-24T11:37:47;28;25;
62846;PMS5003;49477;35.676;139.586;2023-06-24T11:40:17;28;26;
62846;PMS5003;49477;35.676;139.586;2023-06-24T11:42:48;26;25;
62846;PMS5003;49477;35.676;139.586;2023-06-24T11:45:19;30;23;
62846;PMS5003;49477;35.676;139.586;2023-06-24T11:47:49;32;26;
62846;PMS5003;49477;35.676;139.586;2023-06-24T11:50:18;27;26;
62846;PMS5003;49477;35.676;139.586;2023-06-24T11:52:54;28;27;
62846;PMS5003;49477;35.676;139.586;2023-06-24T11:55:24;30;24;
62846;PMS5003;49477;35.676;139.586;2023-06-24T11:57:54;24;22;
62846;PMS5003;49477;35.676;139.586;2023-06-24T12:00:25;34;27;
62846;PMS5003;49477;35.676;139.586;2023-06-24T12:02:57;28;27;
62846;PMS5003;49477;35.676;139.586;2023-06-24T12:05:28;25;24;
62846;PMS5003;49477;35.676;139.586;2023-06-24T12:07:59;27;25;
62846;PMS5003;49477;35.676;139.586;2023-06-24T12:10:31;25;25;
62846;PMS5003;49477;35.676;139.586;2023-06-24T12:13:01;27;26;
62846;PMS5003;49477;35.676;139.586;2023-06-24T12:15:32;28;24;
62846;PMS5003;49477;35.676;139.586;2023-06-24T12:18:02;28;25;
62846;PMS5003;49477;35.676;139.586;2023-06-24T12:20:32;30;26;
62846;PMS5003;49477;35.676;139.586;2023-06-24T12:23:01;26;23;
62846;PMS5003;49477;35.676;139.586;2023-06-24T12:25:30;26;23;
62846;PMS5003;49477;35.676;139.586;2023-06-24T12:28:00;24;22;
62846;PMS5003;49477;35.676;139.586;2023-06-24T12:30:30;29;25;
62846;PMS5003;49477;35.676;139.586;2023-06-24T12:33:00;33;27;
62846;PMS5003;49477;35.676;139.586;2023-06-24T12:35:29;26;26;
62846;PMS5003;49477;35.676;139.586;2023-06-24T12:37:58;22;21;
62846;PMS5003;49477;35.676;139.586;2023-06-24T12:40:27;27;25;
62846;PMS5003;49477;35.676;139.586;2023-06-24T12:42:57;27;25;
62846;PMS5003;49477;35.676;139.586;2023-06-24T12:45:27;28;27;
62846;PMS5003;49477;35.676;139.586;2023-06-24T12:47:57;24;22;
62846;PMS5003;49477;35.676;139.586;2023-06-24T12:50:27;26;25;
62846;PMS5003;49477;35.676;139.586;2023-06-24T12:52:56;26;25;
62846;PMS5003;49477;35.676;139.586;2023-06-24T12:55:25;36;30;
62846;PMS5003;49477;35.676;139.586;2023-06-24T12:57:54;27;27;
62846;PMS5003;49477;35.676;139.586;2023-06-24T13:00:24;32;28;
62846;PMS5003;49477;35.676;139.586;2023-06-24T13:02:55;28;27;
62846;PMS5003;49477;35.676;139.586;2023-06-24T13:05:24;23;21;
62846;PMS5003;49477;35.676;139.586;2023-06-24T13:07:53;35;30;
62846;PMS5003;49477;35.676;139.586;2023-06-24T13:10:23;27;24;
62846;PMS5003;49477;35.676;139.586;2023-06-24T13:12:52;27;23;
62846;PMS5003;49477;35.676;139.586;2023-06-24T13:15:22;26;24;
62846;PMS5003;49477;35.676;139.586;2023-06-24T13:17:51;33;26;
62846;PMS5003;49477;35.676;139.586;2023-06-24T13:20:22;27;27;
62846;PMS5003;49477;35.676;139.586;2023-06-24T13:22:51;26;26;
62846;PMS5003;49477;35.676;139.586;2023-06-24T13:25:20;33;31;
62846;PMS5003;49477;35.676;139.586;2023-06-24T13:27:50;28;27;
62846;PMS5003;49477;35.676;139.586;2023-06-24T13:30:19;30;30;
62846;PMS5003;49477;35.676;139.586;2023-06-24T13:32:49;36;32;
62846;PMS5003;49477;35.676;139.586;2023-06-24T13:35:18;29;26;
62846;PMS5003;49477;35.676;139.586;2023-06-24T13:37:48;30;28;
62846;PMS5003;49477;35.676;139.586;2023-06-24T13:40:18;33;31;
62846;PMS5003;49477;35.676;139.586;2023-06-24T13:42:47;35;31;
62846;PMS5003;49477;35.676;139.586;2023-06-24T13:45:16;30;28;
62846;PMS5003;49477;35.676;139.586;2023-06-24T13:47:46;35;33;
62846;PMS5003;49477;35.676;139.586;2023-06-24T13:50:17;32;30;
62846;PMS5003;49477;35.676;139.586;2023-06-24T13:52:46;32;29;
62846;PMS5003;49477;35.676;139.586;2023-06-24T13:55:15;38;33;
62846;PMS5003;49477;35.676;139.586;2023-06-24T13:57:44;30;26;
62846;PMS5003;49477;35.676;139.586;2023-06-24T14:00:13;30;26;
62846;PMS5003;49477;35.676;139.586;2023-06-24T14:02:43;29;28;
62846;PMS5003;49477;35.676;139.586;2023-06-24T14:05:12;28;26;
62846;PMS5003;49477;35.676;139.586;2023-06-24T14:07:42;30;27;
62846;PMS5003;49477;35.676;139.586;2023-06-24T14:10:12;31;31;
62846;PMS5003;49477;35.676;139.586;2023-06-24T14:12:42;32;27;
62846;PMS5003;49477;35.676;139.586;2023-06-24T14:15:12;28;24;
62846;PMS5003;49477;35.676;139.586;2023-06-24T14:17:42;39;33;
62846;PMS5003;49477;35.676;139.586;2023-06-24T14:20:12;33;32;
62846;PMS5003;49477;35.676;139.586;2023-06-24T14:22:41;36;31;
62846;PMS5003;49477;35.676;139.586;2023-06-24T14:25:10;31;29;
62846;PMS5003;49477;35.676;139.586;2023-06-24T14:27:40;38;34;
62846;PMS5003;49477;35.676;139.586;2023-06-24T14:30:10;35;34;
62846;PMS5003;49477;35.676;139.586;2023-06-24T14:32:39;38;34;
62846;PMS5003;49477;35.676;139.586;2023-06-24T14:35:10;35;34;
62846;PMS5003;49477;35.676;139.586;2023-06-24T14:37:39;33;32;
62846;PMS5003;49477;35.676;139.586;2023-06-24T14:40:10;40;35;
62846;PMS5003;49477;35.676;139.586;2023-06-24T14:42:39;32;31;
62846;PMS5003;49477;35.676;139.586;2023-06-24T14:45:09;32;29;
62846;PMS5003;49477;35.676;139.586;2023-06-24T14:47:38;38;37;
62846;PMS5003;49477;35.676;139.586;2023-06-24T14:50:08;36;32;
62846;PMS5003;49477;35.676;139.586;2023-06-24T14:52:37;25;23;
62846;PMS5003;49477;35.676;139.586;2023-06-24T14:55:06;31;26;
62846;PMS5003;49477;35.676;139.586;2023-06-24T14:57:36;38;34;
62846;PMS5003;49477;35.676;139.586;2023-06-24T15:00:05;42;36;
62846;PMS5003;49477;35.676;139.586;2023-06-24T15:02:36;37;36;
62846;PMS5003;49477;35.676;139.586;2023-06-24T15:05:05;43;39;
62846;PMS5003;49477;35.676;139.586;2023-06-24T15:07:35;40;35;
62846;PMS5003;49477;35.676;139.586;2023-06-24T15:10:04;34;31;
62846;PMS5003;49477;35.676;139.586;2023-06-24T15:12:35;35;32;
62846;PMS5003;49477;35.676;139.586;2023-06-24T15:15:04;39;36;
62846;PMS5003;49477;35.676;139.586;2023-06-24T15:17:34;36;33;
62846;PMS5003;49477;35.676;139.586;2023-06-24T15:20:03;36;32;
62846;PMS5003;49477;35.676;139.586;2023-06-24T15:22:33;41;36;
62846;PMS5003;49477;35.676;139.586;2023-06-24T15:25:03;40;37;
62846;PMS5003;49477;35.676;139.586;2023-06-24T15:27:32;34;32;
62846;PMS5003;49477;35.676;139.586;2023-06-24T15:30:01;40;36;
62846;PMS5003;49477;35.676;139.586;2023-06-24T15:32:31;42;40;
62846;PMS5003;49477;35.676;139.586;2023-06-24T15:35:02;46;39;
62846;PMS5003;49477;35.676;139.586;2023-06-24T15:37:32;41;36;
62846;PMS5003;49477;35.676;139.586;2023-06-24T15:40:01;37;34;
62846;PMS5003;49477;35.676;139.586;2023-06-24T15:42:31;41;38;
62846;PMS5003;49477;35.676;139.586;2023-06-24T15:45:00;38;35;
62846;PMS5003;49477;35.676;139.586;2023-06-24T15:47:30;35;34;
62846;PMS5003;49477;35.676;139.586;2023-06-24T15:49:59;34;32;
62846;PMS5003;49477;35.676;139.586;2023-06-24T15:52:28;40;37;
62846;PMS5003;49477;35.676;139.586;2023-06-24T15:54:57;37;35;
62846;PMS5003;49477;35.676;139.586;2023-06-24T15:57:26;39;37;
62846;PMS5003;49477;35.676;139.586;2023-06-24T15:59:55;38;36;
62846;PMS5003;49477;35.676;139.586;2023-06-24T16:02:24;39;39;
62846;PMS5003;49477;35.676;139.586;2023-06-24T16:04:53;43;36;
62846;PMS5003;49477;35.676;139.586;2023-06-24T16:07:22;44;42;
62846;PMS5003;49477;35.676;139.586;2023-06-24T16:09:51;48;37;